Time;durP1;ratioP1;P1;durP2;ratioP2;P2;SDS_P1;SDS_P2;PMS_P1;PMS_P2;Temp;Humidity;BMP_temperature;BMP_pressure;BME280_temperature;BME280_humidity;BME280_pressure;Samples;Min_cycle;Max_cycle;Signal;HPM_P1;HPM_P2
2021/12/22 00:01:35;;;;;;;42.35;17.90;;;;;;;-5.99;64.24;93194.06;2067750;69;20597;-68
2021/12/22 00:04:02;;;;;;;36.83;16.45;;;;;;;-5.91;63.84;93197.03;2071301;69;20159;-67
2021/12/22 00:06:29;;;;;;;41.78;16.38;;;;;;;-5.93;63.61;93194.09;2071162;69;20179;-67
2021/12/22 00:08:55;;;;;;;34.78;16.23;;;;;;;-5.99;63.86;93201.53;2070112;69;20167;-67
2021/12/22 00:11:21;;;;;;;41.47;16.33;;;;;;;-5.95;63.51;93197.31;2071236;69;20227;-67
2021/12/22 00:13:48;;;;;;;41.33;17.83;;;;;;;-6.11;64.42;93199.97;2071539;69;20148;-67
2021/12/22 00:16:13;;;;;;;39.70;18.05;;;;;;;-6.28;64.33;93197.16;2071109;69;20152;-66
2021/12/22 00:18:39;;;;;;;36.63;15.23;;;;;;;-6.07;64.67;93195.78;2071538;69;20601;-66
2021/12/22 00:21:05;;;;;;;39.42;15.93;;;;;;;-6.29;65.58;93196.41;2068012;69;20927;-66
2021/12/22 00:23:30;;;;;;;35.75;15.25;;;;;;;-6.00;63.89;93189.84;2071666;69;20518;-67
2021/12/22 00:25:57;;;;;;;35.10;14.77;;;;;;;-5.95;64.11;93183.63;2071607;69;20145;-67
2021/12/22 00:28:23;;;;;;;37.38;15.48;;;;;;;-6.03;64.74;93190.81;2071444;69;20215;-67
2021/12/22 00:30:50;;;;;;;36.95;16.10;;;;;;;-6.13;63.79;93183.28;2071168;69;20143;-67
2021/12/22 00:33:17;;;;;;;39.30;16.05;;;;;;;-6.07;63.92;93184.81;2071596;69;20155;-68
2021/12/22 00:35:45;;;;;;;36.45;15.38;;;;;;;-6.06;63.56;93194.53;2071396;69;20219;-70
2021/12/22 00:38:17;;;;;;;37.58;13.32;;;;;;;-6.17;64.84;93192.50;2071442;69;20160;-72
2021/12/22 00:40:44;;;;;;;33.85;14.30;;;;;;;-6.09;63.38;93201.00;2071583;69;20219;-68
2021/12/22 00:43:11;;;;;;;30.38;14.70;;;;;;;-6.07;64.32;93192.28;2071321;69;20148;-67
2021/12/22 00:45:38;;;;;;;33.15;14.15;;;;;;;-6.20;64.67;93189.97;2071284;69;20156;-68
2021/12/22 00:48:06;;;;;;;34.03;14.77;;;;;;;-6.28;64.34;93192.41;2071628;69;20141;-67
2021/12/22 00:50:34;;;;;;;32.00;14.70;;;;;;;-6.33;64.61;93195.88;2070986;69;20590;-67
2021/12/22 00:52:59;;;;;;;43.35;17.50;;;;;;;-6.32;64.22;93200.16;2071278;69;20151;-67
2021/12/22 00:55:25;;;;;;;41.22;17.15;;;;;;;-6.35;64.46;93195.63;2071338;69;20167;-67
2021/12/22 00:57:51;;;;;;;41.28;16.63;;;;;;;-6.30;63.79;93202.38;2071606;69;20152;-67
2021/12/22 01:00:20;;;;;;;33.63;15.75;;;;;;;-6.41;64.52;93197.59;2071665;69;20151;-67
2021/12/22 01:02:46;;;;;;;39.15;16.75;;;;;;;-6.27;64.54;93212.38;2071591;69;20180;-68
2021/12/22 01:05:15;;;;;;;38.97;16.27;;;;;;;-6.19;64.30;93208.66;2070713;69;20460;-67
2021/12/22 01:07:45;;;;;;;34.42;15.38;;;;;;;-6.18;64.66;93203.94;2071259;69;20132;-67
2021/12/22 01:10:11;;;;;;;31.88;15.25;;;;;;;-6.20;64.21;93207.16;2071448;69;20163;-69
2021/12/22 01:12:37;;;;;;;37.70;14.68;;;;;;;-6.35;65.00;93208.59;2071589;69;20251;-68
2021/12/22 01:15:06;;;;;;;27.60;14.13;;;;;;;-6.35;64.67;93203.09;2071565;69;20574;-68
2021/12/22 01:17:42;;;;;;;34.70;13.73;;;;;;;-6.31;64.63;93198.16;2071561;69;20144;-68
2021/12/22 01:20:19;;;;;;;31.55;13.88;;;;;;;-6.24;64.28;93203.16;2071462;69;20146;-68
2021/12/22 01:22:50;;;;;;;32.00;14.27;;;;;;;-6.22;63.54;93200.69;2071819;69;20139;-71
2021/12/22 01:25:21;;;;;;;30.00;13.55;;;;;;;-6.38;64.15;93204.81;2068557;69;20235;-71
2021/12/22 01:27:48;;;;;;;31.95;13.95;;;;;;;-6.45;64.33;93202.56;2071745;69;20136;-68
2021/12/22 01:30:23;;;;;;;34.10;14.50;;;;;;;-6.31;63.95;93212.59;2071597;69;20206;-69
2021/12/22 01:32:51;;;;;;;37.33;13.45;;;;;;;-6.35;64.28;93211.31;2071628;69;20591;-69
2021/12/22 01:35:23;;;;;;;30.75;13.38;;;;;;;-6.38;64.81;93218.53;2068007;69;20138;-68
2021/12/22 01:37:49;;;;;;;30.00;13.30;;;;;;;-6.40;64.86;93221.00;2071632;69;20128;-67
2021/12/22 01:40:16;;;;;;;31.88;13.48;;;;;;;-6.36;64.60;93220.78;2071524;69;20164;-68
2021/12/22 01:42:43;;;;;;;31.25;13.00;;;;;;;-6.44;64.12;93231.44;2071759;69;20186;-68
2021/12/22 01:45:29;;;;;;;32.60;14.18;;;;;;;-6.66;64.63;93232.03;2071474;69;20525;-68
2021/12/22 01:50:49;;;;;;;30.10;13.85;;;;;;;-6.62;64.60;93226.34;2071143;69;20195;-68
2021/12/22 01:53:41;;;;;;;33.03;13.60;;;;;;;-6.49;64.04;93229.41;2068305;69;20593;-69
2021/12/22 01:58:50;;;;;;;32.58;13.07;;;;;;;-6.44;65.00;93234.94;2071640;69;20139;-68
2021/12/22 02:01:17;;;;;;;32.08;14.52;;;;;;;-6.67;65.02;93231.28;2072059;69;20140;-69
2021/12/22 02:03:44;;;;;;;33.38;13.48;;;;;;;-6.66;64.18;93227.31;2068587;69;20329;-71
2021/12/22 02:06:11;;;;;;;31.30;13.40;;;;;;;-6.56;64.15;93222.38;2071818;69;20133;-68
2021/12/22 02:08:41;;;;;;;32.88;12.95;;;;;;;-6.46;64.33;93217.47;2072021;69;20148;-68
2021/12/22 02:11:08;;;;;;;29.85;11.80;;;;;;;-6.47;64.18;93213.97;2071991;69;20156;-68
2021/12/22 02:13:39;;;;;;;29.73;12.40;;;;;;;-6.47;64.63;93219.47;2072019;69;20155;-68
2021/12/22 02:16:08;;;;;;;25.65;11.90;;;;;;;-6.52;65.28;93222.16;2072090;69;20176;-68
2021/12/22 02:18:35;;;;;;;26.00;11.73;;;;;;;-6.46;65.93;93223.72;2072135;69;20598;-69
2021/12/22 02:21:02;;;;;;;34.90;12.15;;;;;;;-6.43;64.44;93233.69;2071472;69;20156;-69
2021/12/22 02:23:28;;;;;;;24.10;10.93;;;;;;;-6.53;65.59;93228.91;2072004;69;20499;-70
2021/12/22 02:25:58;;;;;;;30.52;13.75;;;;;;;-6.68;65.80;93226.31;2072018;69;20190;-71
2021/12/22 02:28:29;;;;;;;30.85;14.82;;;;;;;-6.55;64.85;93223.91;2072000;69;20159;-70
2021/12/22 02:30:55;;;;;;;32.17;14.20;;;;;;;-6.61;64.80;93214.13;2072133;69;20195;-69
2021/12/22 02:33:32;;;;;;;32.67;14.63;;;;;;;-6.44;64.55;93217.75;2071929;69;20595;-72
2021/12/22 02:38:30;;;;;;;35.92;17.80;;;;;;;-6.93;65.47;93223.09;2072096;69;20143;-75
2021/12/22 02:40:55;;;;;;;36.10;18.30;;;;;;;-6.73;64.82;93214.06;2072136;69;20152;-67
2021/12/22 02:43:23;;;;;;;34.05;17.00;;;;;;;-6.69;64.49;93209.13;2068584;69;20167;-69
2021/12/22 02:45:50;;;;;;;32.60;17.20;;;;;;;-6.97;65.19;93214.38;2071998;69;20205;-68
2021/12/22 02:48:17;;;;;;;30.15;16.95;;;;;;;-6.84;65.26;93219.44;2071928;69;20156;-69
2021/12/22 02:50:43;;;;;;;31.90;16.45;;;;;;;-6.71;64.90;93216.31;2071988;69;20241;-68
2021/12/22 02:53:13;;;;;;;31.25;16.15;;;;;;;-6.57;64.78;93218.16;2071969;69;20152;-68
2021/12/22 02:56:25;;;;;;;34.05;15.82;;;;;;;-6.69;65.40;93222.81;2071828;69;20152;-68
2021/12/22 03:06:23;;;;;;;24.55;10.85;;;;;;;-6.55;64.73;93229.38;2068260;69;20598;-68
2021/12/22 03:08:49;;;;;;;28.15;12.18;;;;;;;-6.55;64.52;93232.13;2071942;69;20146;-68
2021/12/22 03:11:14;;;;;;;23.67;11.98;;;;;;;-6.49;64.67;93226.69;2072048;69;20164;-72
2021/12/22 03:13:40;;;;;;;27.95;14.05;;;;;;;-6.71;66.16;93230.00;2071846;69;20228;-70
2021/12/22 03:16:06;;;;;;;27.55;13.10;;;;;;;-6.77;65.18;93238.19;2071858;69;20574;-70
2021/12/22 03:18:32;;;;;;;29.05;14.07;;;;;;;-6.79;64.88;93231.69;2071889;69;20166;-75
2021/12/22 03:21:08;;;;;;;30.20;13.07;;;;;;;-6.76;65.16;93241.66;2071784;69;20192;-70
2021/12/22 03:23:34;;;;;;;31.75;14.02;;;;;;;-6.59;64.17;93237.06;2071832;69;20574;-69
2021/12/22 03:25:59;;;;;;;27.20;13.73;;;;;;;-6.71;64.23;93233.50;2071885;69;20218;-69
2021/12/22 03:28:25;;;;;;;26.88;12.55;;;;;;;-6.63;64.54;93242.03;2071799;69;20263;-68
2021/12/22 03:30:53;;;;;;;30.55;12.98;;;;;;;-6.92;64.60;93237.53;2071941;69;20170;-67
2021/12/22 03:33:18;;;;;;;27.10;14.18;;;;;;;-6.98;64.65;93237.50;2071855;69;20148;-68
2021/12/22 03:35:44;;;;;;;29.65;14.45;;;;;;;-6.95;64.75;93241.28;2071707;69;20156;-67
2021/12/22 03:38:10;;;;;;;30.92;14.75;;;;;;;-6.97;64.53;93235.50;2071947;69;20190;-67
2021/12/22 03:40:35;;;;;;;30.05;13.77;;;;;;;-6.97;64.35;93235.50;2071826;69;20128;-68
2021/12/22 03:43:01;;;;;;;29.38;14.57;;;;;;;-7.04;64.56;93228.50;2071782;69;20159;-68
2021/12/22 03:45:27;;;;;;;26.30;13.20;;;;;;;-6.92;64.16;93237.53;2071836;69;20140;-69
2021/12/22 03:47:53;;;;;;;26.60;12.65;;;;;;;-6.82;64.57;93241.63;2071819;69;20609;-70
2021/12/22 03:50:18;;;;;;;29.58;13.27;;;;;;;-7.02;64.64;93233.47;2071685;69;20152;-72
2021/12/22 03:52:47;;;;;;;30.15;15.27;;;;;;;-7.20;65.92;93234.56;2071953;69;20259;-69
2021/12/22 03:55:13;;;;;;;32.00;15.75;;;;;;;-6.96;64.75;93231.56;2071725;69;20151;-70
2021/12/22 03:57:39;;;;;;;22.80;11.38;;;;;;;-6.79;65.66;93231.69;2071748;69;20168;-68
2021/12/22 04:00:10;;;;;;;22.63;11.18;;;;;;;-6.84;65.23;93241.34;2071858;69;20143;-67
2021/12/22 04:02:35;;;;;;;21.85;10.80;;;;;;;-6.85;65.24;93239.84;2071853;69;20216;-67
2021/12/22 04:05:02;;;;;;;21.55;8.65;;;;;;;-6.76;65.52;93245.16;2071653;69;20156;-67
2021/12/22 04:07:28;;;;;;;24.80;10.80;;;;;;;-6.85;64.92;93247.31;2071438;69;20629;-68
2021/12/22 04:09:53;;;;;;;30.63;13.10;;;;;;;-6.84;64.86;93255.03;2071305;69;20158;-68
2021/12/22 04:12:19;;;;;;;35.45;16.05;;;;;;;-7.32;66.19;93254.84;2071588;69;20147;-68
2021/12/22 04:14:45;;;;;;;38.15;17.90;;;;;;;-7.29;66.24;93254.63;2071615;69;20178;-67
2021/12/22 04:17:10;;;;;;;32.08;14.75;;;;;;;-7.13;65.28;93256.03;2071728;69;20136;-68
2021/12/22 04:19:36;;;;;;;27.65;12.82;;;;;;;-7.05;65.89;93257.09;2071740;69;20151;-68
2021/12/22 04:22:04;;;;;;;30.80;14.10;;;;;;;-7.01;65.23;93267.81;2071789;69;20152;-70
2021/12/22 04:24:29;;;;;;;32.03;14.38;;;;;;;-7.13;65.32;93266.22;2070257;69;20231;-72
2021/12/22 04:26:55;;;;;;;27.35;14.23;;;;;;;-6.89;65.29;93271.44;2069620;69;20236;-69
2021/12/22 04:29:21;;;;;;;30.98;14.23;;;;;;;-6.90;65.11;93278.88;2068361;69;20504;-71
2021/12/22 04:31:46;;;;;;;39.65;18.17;;;;;;;-7.19;65.36;93293.56;2068533;69;20173;-70
2021/12/22 04:34:12;;;;;;;36.05;17.83;;;;;;;-7.20;65.20;93284.56;2064929;69;20232;-74
2021/12/22 04:36:39;;;;;;;36.50;17.17;;;;;;;-7.16;64.73;93293.31;2065057;69;20141;-68
2021/12/22 04:39:07;;;;;;;39.88;19.52;;;;;;;-7.17;64.84;93296.53;2068364;69;20184;-68
2021/12/22 04:41:32;;;;;;;42.30;19.00;;;;;;;-7.33;65.51;93297.88;2068389;69;20177;-68
2021/12/22 04:43:58;;;;;;;40.67;18.55;;;;;;;-7.18;65.14;93295.03;2068504;69;20179;-67
2021/12/22 04:46:24;;;;;;;27.42;12.90;;;;;;;-7.01;64.93;93284.25;2068395;69;20156;-67
2021/12/22 04:48:51;;;;;;;26.75;13.13;;;;;;;-7.11;66.02;93280.16;2068459;69;20150;-68
2021/12/22 04:51:27;;;;;;;32.67;14.95;;;;;;;-7.05;66.59;93284.47;2068367;69;20527;-70
2021/12/22 04:54:17;;;;;;;35.13;16.42;;;;;;;-7.20;65.53;93292.03;2068503;69;20228;-71
2021/12/22 04:56:43;;;;;;;32.30;14.70;;;;;;;-7.16;65.47;93290.56;2068295;69;20152;-70
2021/12/22 04:59:09;;;;;;;36.35;17.05;;;;;;;-7.13;65.46;93288.13;2068378;69;20141;-72
2021/12/22 05:01:35;;;;;;;37.40;17.20;;;;;;;-7.11;65.56;93283.66;2068331;69;20616;-70
2021/12/22 05:04:00;;;;;;;35.63;15.63;;;;;;;-7.04;65.64;93302.41;2068203;69;20136;-75
2021/12/22 05:06:27;;;;;;;36.08;16.83;;;;;;;-7.51;66.93;93306.38;2068253;69;20631;-69
2021/12/22 05:08:53;;;;;;;37.58;16.60;;;;;;;-7.26;65.62;93302.16;2068290;69;20156;-73
2021/12/22 05:11:19;;;;;;;34.17;17.38;;;;;;;-7.20;64.88;93294.75;2068332;69;20167;-73
2021/12/22 05:13:44;;;;;;;37.33;18.40;;;;;;;-7.19;65.44;93305.25;2068264;69;20620;-71
2021/12/22 05:16:17;;;;;;;38.20;17.70;;;;;;;-7.49;65.74;93301.91;2068346;69;20139;-68
2021/12/22 05:18:54;;;;;;;35.03;17.63;;;;;;;-7.53;65.83;93303.34;2068360;69;20145;-70
2021/12/22 05:21:22;;;;;;;41.22;18.13;;;;;;;-7.66;65.51;93309.16;2068370;69;20206;-69
2021/12/22 05:23:55;;;;;;;36.70;17.90;;;;;;;-7.51;65.17;93309.13;2068295;69;20172;-68
2021/12/22 05:26:22;;;;;;;41.00;18.23;;;;;;;-7.50;65.20;93310.63;2068314;69;20140;-68
2021/12/22 05:28:48;;;;;;;36.70;18.05;;;;;;;-7.36;65.14;93309.03;2067990;69;20180;-68
2021/12/22 05:31:15;;;;;;;36.83;17.92;;;;;;;-7.38;65.11;93311.47;2064972;69;20217;-68
2021/12/22 05:33:40;;;;;;;37.50;17.65;;;;;;;-7.35;64.61;93307.78;2068340;69;20192;-68
2021/12/22 05:36:06;;;;;;;42.03;17.42;;;;;;;-7.40;64.25;93311.22;2064877;69;20147;-68
2021/12/22 05:38:32;;;;;;;35.80;17.40;;;;;;;-7.42;65.00;93308.97;2068408;69;20639;-72
2021/12/22 05:40:58;;;;;;;39.42;17.05;;;;;;;-7.58;66.04;93304.03;2068234;69;20234;-68
2021/12/22 05:43:23;;;;;;;38.28;17.63;;;;;;;-7.54;65.71;93299.13;2068194;69;20524;-69
2021/12/22 05:45:49;;;;;;;38.85;17.60;;;;;;;-7.48;64.55;93303.41;2068190;69;20149;-69
2021/12/22 05:48:15;;;;;;;36.15;18.25;;;;;;;-7.45;64.83;93302.47;2068145;69;20267;-69
2021/12/22 05:50:46;;;;;;;39.38;19.33;;;;;;;-7.35;65.08;93294.09;2068188;69;20180;-69
2021/12/22 05:53:12;;;;;;;38.77;17.70;;;;;;;-7.28;65.25;93301.91;2068346;69;20148;-71
2021/12/22 05:55:38;;;;;;;37.47;17.30;;;;;;;-7.50;67.23;93305.13;2068490;69;20159;-68
2021/12/22 05:58:03;;;;;;;37.38;17.60;;;;;;;-7.32;65.58;93304.09;2069605;69;20147;-68
2021/12/22 06:00:29;;;;;;;42.30;18.85;;;;;;;-7.39;65.89;93304.50;2069332;69;20252;-68
2021/12/22 06:02:55;;;;;;;34.80;18.08;;;;;;;-7.46;65.15;93303.69;2068972;69;20244;-67
2021/12/22 06:05:21;;;;;;;35.22;17.15;;;;;;;-7.37;64.93;93300.06;2068115;69;20230;-67
2021/12/22 06:07:46;;;;;;;32.25;16.38;;;;;;;-7.32;65.45;93299.38;2068158;69;20584;-75
2021/12/22 06:10:12;;;;;;;38.03;16.73;;;;;;;-7.35;65.15;93299.59;2068154;69;20228;-71
2021/12/22 06:12:38;;;;;;;31.58;16.42;;;;;;;-7.28;65.18;93299.19;2068131;69;20140;-72
2021/12/22 06:15:04;;;;;;;33.78;14.45;;;;;;;-7.30;65.05;93307.09;2068114;69;20224;-71
2021/12/22 06:17:29;;;;;;;30.08;14.50;;;;;;;-7.34;65.57;93307.28;2068142;69;20159;-72
2021/12/22 06:19:55;;;;;;;38.05;15.70;;;;;;;-7.50;66.33;93308.63;2068111;69;20168;-72
2021/12/22 06:22:22;;;;;;;37.20;17.50;;;;;;;-7.48;66.54;93313.59;2068092;69;20672;-72
2021/12/22 06:24:47;;;;;;;39.97;19.33;;;;;;;-7.59;66.07;93314.25;2064824;69;20699;-72
2021/12/22 06:27:13;;;;;;;43.72;19.73;;;;;;;-7.46;65.61;93322.84;2068066;69;20152;-70
2021/12/22 06:29:38;;;;;;;41.88;20.33;;;;;;;-7.60;65.38;93317.47;2068109;69;20141;-70
2021/12/22 06:32:05;;;;;;;44.45;21.48;;;;;;;-7.62;65.62;93323.38;2067988;69;20654;-68
2021/12/22 06:34:30;;;;;;;41.13;20.75;;;;;;;-7.75;65.12;93323.72;2067855;69;20222;-69
2021/12/22 06:36:56;;;;;;;41.83;19.20;;;;;;;-7.53;65.33;93320.50;2068013;69;20183;-68
2021/12/22 06:39:22;;;;;;;37.75;18.60;;;;;;;-7.58;65.67;93313.00;2068096;69;20145;-72
2021/12/22 06:41:48;;;;;;;39.85;18.83;;;;;;;-7.59;65.29;93329.91;2068561;69;20152;-70
2021/12/22 06:44:15;;;;;;;36.85;17.27;;;;;;;-7.54;64.99;93318.28;2065242;69;20232;-71
2021/12/22 06:46:42;;;;;;;33.75;16.80;;;;;;;-7.47;65.11;93326.03;2068615;69;20503;-71
2021/12/22 06:49:11;;;;;;;37.88;19.23;;;;;;;-7.58;64.80;93329.41;2068463;69;20521;-72
2021/12/22 06:51:37;;;;;;;40.33;18.60;;;;;;;-7.66;64.37;93325.56;2068614;69;20210;-73
2021/12/22 06:54:03;;;;;;;45.30;20.23;;;;;;;-7.72;65.71;93332.97;2068543;69;20623;-71
2021/12/22 06:56:29;;;;;;;39.40;19.55;;;;;;;-7.64;65.97;93334.06;2068513;69;20153;-69
2021/12/22 06:58:57;;;;;;;42.35;18.92;;;;;;;-7.59;65.61;93336.13;2065171;69;20148;-68
2021/12/22 07:01:23;;;;;;;39.85;18.88;;;;;;;-7.51;65.25;93329.00;2068559;69;20231;-72
2021/12/22 07:03:48;;;;;;;39.85;18.23;;;;;;;-7.45;65.48;93335.28;2068642;69;20168;-72
2021/12/22 07:06:15;;;;;;;41.90;19.23;;;;;;;-7.51;65.97;93339.19;2070007;69;20252;-67
2021/12/22 07:08:41;;;;;;;44.13;20.20;;;;;;;-7.61;65.48;93340.53;2071881;69;20184;-68
2021/12/22 07:11:06;;;;;;;42.05;19.02;;;;;;;-7.52;66.50;93332.94;2071891;69;20124;-68
2021/12/22 07:13:32;;;;;;;39.17;19.70;;;;;;;-7.43;65.65;93341.03;2071849;69;20148;-70
2021/12/22 07:15:58;;;;;;;43.35;19.65;;;;;;;-7.52;66.51;93345.88;2071884;69;20156;-70
2021/12/22 07:18:24;;;;;;;50.53;22.08;;;;;;;-7.63;67.50;93346.50;2071848;69;20168;-68
2021/12/22 07:20:50;;;;;;;48.20;19.88;;;;;;;-7.42;66.02;93352.75;2071765;69;20155;-71
2021/12/22 07:23:16;;;;;;;42.08;19.52;;;;;;;-7.53;65.53;93353.34;2071982;69;20300;-69
2021/12/22 07:25:42;;;;;;;42.90;19.58;;;;;;;-7.50;65.92;93354.38;2071894;69;20132;-74
2021/12/22 07:28:10;;;;;;;43.72;20.45;;;;;;;-7.53;65.74;93353.34;2071839;69;20156;-72
2021/12/22 07:30:37;;;;;;;45.13;22.23;;;;;;;-7.54;66.14;93348.34;2068754;69;20213;-71
2021/12/22 07:33:03;;;;;;;50.25;22.98;;;;;;;-7.52;65.88;93354.09;2071837;69;20187;-68
2021/12/22 07:35:58;;;;;;;44.50;21.52;;;;;;;-7.64;65.39;93361.41;2071771;69;20147;-70
2021/12/22 07:38:24;;;;;;;44.92;20.23;;;;;;;-7.52;64.66;93359.56;2071874;69;20227;-70
2021/12/22 07:40:54;;;;;;;41.05;20.42;;;;;;;-7.53;64.95;93364.28;2071937;69;20171;-71
2021/12/22 07:43:20;;;;;;;41.10;20.02;;;;;;;-7.38;64.78;93366.19;2071844;69;20223;-70
2021/12/22 07:45:46;;;;;;;44.55;19.75;;;;;;;-7.53;64.63;93371.72;2071802;69;20152;-69
2021/12/22 07:48:12;;;;;;;41.95;20.67;;;;;;;-7.34;64.71;93374.94;2071742;69;20144;-69
2021/12/22 07:50:38;;;;;;;41.22;20.13;;;;;;;-7.50;65.44;93370.78;2070962;69;20148;-69
2021/12/22 07:53:03;;;;;;;41.78;20.55;;;;;;;-7.61;65.61;93368.63;2071749;69;20156;-72
2021/12/22 07:55:29;;;;;;;42.20;19.73;;;;;;;-7.64;65.57;93375.06;2071764;69;20187;-75
2021/12/22 07:57:55;;;;;;;42.53;20.10;;;;;;;-7.54;64.79;93373.72;2071766;69;20168;-71
2021/12/22 08:00:20;;;;;;;44.55;22.08;;;;;;;-7.46;65.77;93368.59;2069382;69;20507;-68
2021/12/22 08:02:46;;;;;;;48.05;21.90;;;;;;;-7.39;65.87;93368.16;2070779;69;20160;-68
2021/12/22 08:05:12;;;;;;;48.70;23.13;;;;;;;-7.30;65.79;93370.03;2071681;69;20148;-70
2021/12/22 08:07:38;;;;;;;47.75;21.52;;;;;;;-7.32;65.27;93367.78;2065077;69;20149;-72
2021/12/22 08:10:06;;;;;;;43.58;20.48;;;;;;;-7.22;65.34;93369.13;2065100;69;20164;-74
2021/12/22 08:12:32;;;;;;;48.05;20.65;;;;;;;-7.25;65.17;93372.06;2065079;69;20218;-70
2021/12/22 08:14:57;;;;;;;43.90;19.58;;;;;;;-7.23;64.85;93366.88;2065086;69;20160;-71
2021/12/22 08:17:23;;;;;;;36.30;18.67;;;;;;;-7.39;65.67;93370.16;2065175;69;20176;-70
2021/12/22 08:19:49;;;;;;;36.10;18.35;;;;;;;-7.34;65.80;93372.22;2065028;69;20179;-69
2021/12/22 08:22:15;;;;;;;40.78;17.02;;;;;;;-7.28;65.80;93362.84;2065052;69;20655;-69
2021/12/22 08:24:40;;;;;;;40.20;17.38;;;;;;;-7.36;65.14;93375.44;2065148;69;20133;-75
2021/12/22 08:27:06;;;;;;;39.58;17.70;;;;;;;-7.29;65.08;93377.75;2064297;69;20145;-74
2021/12/22 08:29:32;;;;;;;42.25;17.77;;;;;;;-7.57;66.43;93376.66;2065045;69;20489;-76
2021/12/22 08:31:57;;;;;;;38.08;17.80;;;;;;;-7.32;66.23;93381.44;2065046;69;20148;-74
2021/12/22 08:34:28;;;;;;;37.17;17.58;;;;;;;-7.32;66.16;93383.44;2064949;69;20144;-70
2021/12/22 08:39:40;;;;;;;38.83;19.23;;;;;;;-7.32;66.55;93386.94;2064973;69;20601;-69
2021/12/22 08:42:06;;;;;;;42.83;19.60;;;;;;;-7.26;66.15;93376.78;2064433;69;20219;-68
2021/12/22 08:44:33;;;;;;;41.78;18.15;;;;;;;-7.23;65.66;93375.09;2064534;69;20624;-71
2021/12/22 08:46:59;;;;;;;44.55;20.63;;;;;;;-7.22;65.97;93382.06;2065022;69;20137;-73
2021/12/22 08:49:25;;;;;;;50.63;22.20;;;;;;;-7.08;66.01;93380.47;2064830;69;20527;-70
2021/12/22 08:51:51;;;;;;;54.47;25.08;;;;;;;-7.02;66.08;93376.56;2064998;69;20136;-69
2021/12/22 08:54:17;;;;;;;51.70;23.67;;;;;;;-7.04;66.58;93370.06;2064973;69;20292;-70
2021/12/22 08:56:43;;;;;;;48.13;23.13;;;;;;;-6.68;66.24;93366.72;2064764;69;20658;-70
2021/12/22 08:59:10;;;;;;;53.10;25.50;;;;;;;-6.10;67.47;93365.94;2064884;69;20256;-70
2021/12/22 09:01:36;;;;;;;53.72;23.92;;;;;;;-5.75;66.85;93371.91;2064962;69;20149;-72
2021/12/22 09:04:02;;;;;;;84.80;37.60;;;;;;;-5.84;70.98;93377.59;2064852;69;20163;-73
2021/12/22 09:06:28;;;;;;;74.85;34.90;;;;;;;-5.27;67.16;93379.38;2066071;69;20157;-69
2021/12/22 09:08:54;;;;;;;67.07;34.25;;;;;;;-4.96;67.64;93378.53;2068278;69;20141;-68
2021/12/22 09:11:21;;;;;;;79.13;37.33;;;;;;;-4.74;69.13;93383.34;2066781;69;20684;-70
2021/12/22 09:13:47;;;;;;;109.72;51.47;;;;;;;-4.87;67.34;93386.53;2067337;69;20195;-70
2021/12/22 09:16:12;;;;;;;80.95;37.05;;;;;;;-4.68;66.67;93383.34;2068342;69;20172;-69
2021/12/22 09:18:38;;;;;;;95.03;43.17;;;;;;;-4.40;65.62;93383.41;2068319;69;20170;-69
2021/12/22 09:21:06;;;;;;;52.72;25.88;;;;;;;-3.68;68.55;93385.44;2068238;69;20147;-69
2021/12/22 09:23:31;;;;;;;48.30;24.17;;;;;;;-3.32;65.59;93372.59;2068439;69;20168;-70
2021/12/22 09:25:57;;;;;;;41.95;21.83;;;;;;;-3.00;66.09;93377.03;2068277;69;20179;-69
2021/12/22 09:28:23;;;;;;;42.85;21.67;;;;;;;-2.89;64.91;93374.22;2067332;69;20623;-69
2021/12/22 09:30:49;;;;;;;39.00;19.80;;;;;;;-2.71;63.11;93383.91;2067225;69;20574;-68
2021/12/22 09:33:16;;;;;;;61.30;26.90;;;;;;;-2.58;62.72;93378.59;2068251;69;20145;-75
2021/12/22 09:35:44;;;;;;;80.05;32.45;;;;;;;-2.51;62.31;93386.34;2068189;69;20244;-72
2021/12/22 09:38:10;;;;;;;79.65;29.92;;;;;;;-1.91;62.60;93391.22;2068411;69;20160;-72
2021/12/22 09:40:36;;;;;;;53.42;23.48;;;;;;;-1.69;61.46;93388.28;2068232;69;20265;-71
2021/12/22 09:43:02;;;;;;;28.75;14.63;;;;;;;-1.33;61.20;93380.69;2068219;69;20132;-73
2021/12/22 09:45:28;;;;;;;29.75;15.05;;;;;;;-1.32;59.67;93375.91;2068349;69;20580;-72
2021/12/22 09:50:46;;;;;;;28.73;14.95;;;;;;;-1.57;59.13;93364.81;2068091;69;20140;-74
2021/12/22 09:53:19;;;;;;;36.47;17.90;;;;;;;-0.94;58.06;93367.69;2068393;69;20156;-73
2021/12/22 09:55:46;;;;;;;35.28;16.25;;;;;;;-0.91;57.03;93364.66;2068168;69;20243;-72
2021/12/22 09:58:12;;;;;;;33.92;15.90;;;;;;;-0.45;56.63;93360.06;2068122;69;20216;-72
2021/12/22 10:00:40;;;;;;;30.13;17.65;;;;;;;-0.23;55.98;93361.00;2068119;69;20136;-69
2021/12/22 10:03:07;;;;;;;26.70;13.73;;;;;;;-0.30;57.07;93360.34;2068194;69;20244;-70
2021/12/22 10:05:35;;;;;;;28.98;15.80;;;;;;;0.19;54.96;93351.09;2068479;69;20215;-71
2021/12/22 10:08:08;;;;;;;25.98;15.40;;;;;;;-0.13;54.31;93349.03;2071449;69;20163;-69
2021/12/22 10:10:39;;;;;;;27.30;15.38;;;;;;;0.36;54.48;93343.22;2071560;69;20153;-70
2021/12/22 10:13:07;;;;;;;21.40;11.20;;;;;;;0.42;53.81;93343.16;2071602;69;20155;-69
2021/12/22 10:15:34;;;;;;;22.13;11.40;;;;;;;0.13;52.81;93337.31;2071647;69;20132;-68
2021/12/22 10:18:11;;;;;;;21.90;12.27;;;;;;;0.39;52.48;93342.19;2072132;69;20148;-73
2021/12/22 10:20:40;;;;;;;14.65;9.25;;;;;;;0.10;51.10;93348.72;2071886;69;20212;-73
2021/12/22 10:23:25;;;;;;;19.52;10.05;;;;;;;0.93;51.66;93331.91;2071996;69;20168;-73
2021/12/22 10:25:57;;;;;;;17.20;9.43;;;;;;;1.22;50.60;93330.81;2071940;69;20608;-74
2021/12/22 10:28:24;;;;;;;16.20;9.33;;;;;;;1.68;48.66;93327.88;2071906;69;20160;-72
2021/12/22 10:30:56;;;;;;;25.50;13.93;;;;;;;2.28;48.43;93332.53;2072050;69;20144;-68
2021/12/22 10:33:27;;;;;;;21.13;10.83;;;;;;;2.68;48.18;93327.50;2072098;69;20133;-74
2021/12/22 10:35:56;;;;;;;24.27;13.23;;;;;;;3.60;46.58;93328.06;2071855;69;20152;-73
2021/12/22 10:38:27;;;;;;;27.20;15.23;;;;;;;3.25;44.83;93321.19;2071978;69;20642;-69
2021/12/22 10:41:00;;;;;;;24.20;14.40;;;;;;;2.85;46.20;93298.53;2072078;69;20504;-74
2021/12/22 10:43:32;;;;;;;28.05;17.35;;;;;;;3.67;45.01;93307.13;2071977;69;20190;-69
2021/12/22 10:46:03;;;;;;;34.03;22.05;;;;;;;3.29;44.39;93310.47;2068704;69;20504;-69
2021/12/22 10:51:32;;;;;;;26.23;15.35;;;;;;;3.62;43.67;93299.66;2072030;69;20149;-70
2021/12/22 10:53:59;;;;;;;29.08;16.10;;;;;;;5.18;42.59;93293.09;2068733;69;20159;-74
2021/12/22 10:56:38;;;;;;;14.25;9.10;;;;;;;5.69;41.21;93292.75;2071880;69;20136;-76
2021/12/22 10:59:09;;;;;;;19.05;12.00;;;;;;;5.37;39.51;93296.22;2071930;69;20587;-73
2021/12/22 11:01:38;;;;;;;36.17;22.85;;;;;;;7.00;38.21;93290.59;2071898;69;20148;-70
2021/12/22 11:04:14;;;;;;;42.63;27.00;;;;;;;7.18;35.66;93290.63;2071762;69;20163;-70
2021/12/22 11:06:40;;;;;;;33.15;22.02;;;;;;;7.01;36.40;93299.75;2071849;69;20243;-73
2021/12/22 11:09:10;;;;;;;34.58;21.88;;;;;;;4.73;37.50;93295.38;2071840;69;20172;-69
2021/12/22 11:11:45;;;;;;;31.20;20.65;;;;;;;5.04;37.44;93295.34;2072126;69;20267;-70
2021/12/22 11:14:25;;;;;;;31.77;19.23;;;;;;;4.22;39.95;93292.78;2071835;69;20144;-71
2021/12/22 11:17:00;;;;;;;40.15;25.17;;;;;;;3.28;39.99;93290.25;2071640;69;20175;-70
2021/12/22 11:19:32;;;;;;;42.00;23.83;;;;;;;2.50;40.91;93281.22;2071640;69;20512;-70
2021/12/22 11:22:03;;;;;;;55.60;27.02;;;;;;;2.28;41.46;93272.16;2071899;69;20163;-70
2021/12/22 11:24:30;;;;;;;47.88;25.90;;;;;;;1.35;43.44;93265.50;2071971;69;20206;-72
2021/12/22 11:26:58;;;;;;;49.97;26.73;;;;;;;1.16;43.97;93262.91;2071491;69;20251;-69
2021/12/22 11:29:24;;;;;;;52.67;26.02;;;;;;;1.15;43.95;93264.19;2070511;69;20148;-69
2021/12/22 11:31:51;;;;;;;55.15;25.38;;;;;;;0.91;44.59;93252.03;2070888;69;20144;-69
2021/12/22 11:34:19;;;;;;;64.70;28.00;;;;;;;0.51;45.43;93248.56;2070966;69;20160;-68
2021/12/22 11:36:46;;;;;;;85.90;40.00;;;;;;;0.64;46.16;93247.78;2071705;69;20481;-69
2021/12/22 11:39:12;;;;;;;75.75;35.25;;;;;;;0.40;46.05;93243.94;2071644;69;20523;-72
2021/12/22 11:41:43;;;;;;;65.43;28.90;;;;;;;0.14;46.83;93246.72;2071716;69;20227;-70
2021/12/22 11:44:12;;;;;;;80.93;33.08;;;;;;;0.31;46.93;93249.16;2071678;69;20151;-70
2021/12/22 11:46:39;;;;;;;78.07;36.92;;;;;;;0.21;47.13;93244.03;2071719;69;20192;-71